sensor_id;sensor_type;location;lat;lon;timestamp;pressure;altitude;pressure_sealevel;temperature;humidity
35878;BME280;21982;49.804;24.072;2023-01-31T00:01:35;95972.47;;;0.22;73.22
35878;BME280;21982;49.804;24.072;2023-01-31T00:04:03;96070.50;;;0.81;73.59
35878;BME280;21982;49.804;24.072;2023-01-31T00:06:32;95939.50;;;-0.04;73.22
35878;BME280;21982;49.804;24.072;2023-01-31T00:08:58;96151.16;;;1.33;73.57
35878;BME280;21982;49.804;24.072;2023-01-31T00:11:26;95732.44;;;-1.15;72.97
35878;BME280;21982;49.804;24.072;2023-01-31T00:13:54;96154.94;;;1.39;72.68
35878;BME280;21982;49.804;24.072;2023-01-31T00:16:21;95957.16;;;0.19;72.75
35878;BME280;21982;49.804;24.072;2023-01-31T00:18:47;96142.19;;;1.27;73.09
35878;BME280;21982;49.804;24.072;2023-01-31T00:21:23;96146.13;;;1.48;72.82
35878;BME280;21982;49.804;24.072;2023-01-31T00:23:50;95929.78;;;0.07;72.47
35878;BME280;21982;49.804;24.072;2023-01-31T00:26:27;96101.72;;;1.15;72.12
35878;BME280;21982;49.804;24.072;2023-01-31T00:28:54;96073.47;;;0.86;72.47
35878;BME280;21982;49.804;24.072;2023-01-31T00:31:22;96144.50;;;1.47;72.46
35878;BME280;21982;49.804;24.072;2023-01-31T00:33:49;96064.19;;;0.92;72.76
35878;BME280;21982;49.804;24.072;2023-01-31T00:36:20;96127.03;;;1.31;72.18
35878;BME280;21982;49.804;24.072;2023-01-31T00:38:52;96066.78;;;0.84;72.64
35878;BME280;21982;49.804;24.072;2023-01-31T00:41:22;95968.16;;;0.05;72.52
35878;BME280;21982;49.804;24.072;2023-01-31T00:43:49;96110.69;;;1.21;72.73
35878;BME280;21982;49.804;24.072;2023-01-31T00:46:15;96123.63;;;1.30;72.77
35878;BME280;21982;49.804;24.072;2023-01-31T00:48:41;96039.22;;;0.73;72.08
35878;BME280;21982;49.804;24.072;2023-01-31T00:51:06;96117.72;;;1.20;72.46
35878;BME280;21982;49.804;24.072;2023-01-31T00:53:32;95974.63;;;0.00;72.43
35878;BME280;21982;49.804;24.072;2023-01-31T00:56:03;95868.13;;;-0.43;71.84
35878;BME280;21982;49.804;24.072;2023-01-31T00:58:29;95811.38;;;-0.82;72.55
35878;BME280;21982;49.804;24.072;2023-01-31T01:00:55;96013.25;;;0.47;71.87
35878;BME280;21982;49.804;24.072;2023-01-31T01:03:20;96142.88;;;1.46;72.34
35878;BME280;21982;49.804;24.072;2023-01-31T01:05:45;96151.34;;;1.48;72.34
35878;BME280;21982;49.804;24.072;2023-01-31T01:08:11;96122.94;;;1.28;72.40
35878;BME280;21982;49.804;24.072;2023-01-31T01:10:36;96156.25;;;1.51;71.93
35878;BME280;21982;49.804;24.072;2023-01-31T01:13:02;96084.97;;;0.76;71.85
35878;BME280;21982;49.804;24.072;2023-01-31T01:15:29;96096.50;;;1.15;72.02
35878;BME280;21982;49.804;24.072;2023-01-31T01:17:55;96152.66;;;1.52;71.87
35878;BME280;21982;49.804;24.072;2023-01-31T01:20:20;96070.03;;;0.86;72.03
35878;BME280;21982;49.804;24.072;2023-01-31T01:22:45;96167.03;;;1.56;71.85
35878;BME280;21982;49.804;24.072;2023-01-31T01:25:11;96179.41;;;1.54;71.88
35878;BME280;21982;49.804;24.072;2023-01-31T01:27:36;95972.66;;;0.28;72.03
35878;BME280;21982;49.804;24.072;2023-01-31T01:30:03;95773.63;;;-0.94;71.63
35878;BME280;21982;49.804;24.072;2023-01-31T01:32:29;96161.47;;;1.51;72.36
35878;BME280;21982;49.804;24.072;2023-01-31T01:34:55;96188.69;;;1.48;72.58
35878;BME280;21982;49.804;24.072;2023-01-31T01:37:20;96048.50;;;0.76;72.83
35878;BME280;21982;49.804;24.072;2023-01-31T01:39:47;96060.25;;;0.80;72.27
35878;BME280;21982;49.804;24.072;2023-01-31T01:42:16;96081.00;;;1.06;72.31
35878;BME280;21982;49.804;24.072;2023-01-31T01:45:18;96167.03;;;1.56;72.68
35878;BME280;21982;49.804;24.072;2023-01-31T01:47:48;96166.53;;;1.52;72.42
35878;BME280;21982;49.804;24.072;2023-01-31T01:50:21;96170.41;;;1.32;72.82
35878;BME280;21982;49.804;24.072;2023-01-31T01:52:53;95971.34;;;0.24;72.85
35878;BME280;21982;49.804;24.072;2023-01-31T01:55:49;96179.88;;;1.49;72.86
35878;BME280;21982;49.804;24.072;2023-01-31T01:58:38;96120.63;;;1.17;72.88
35878;BME280;21982;49.804;24.072;2023-01-31T02:01:07;96161.63;;;1.49;73.24
35878;BME280;21982;49.804;24.072;2023-01-31T02:03:33;96084.31;;;0.65;72.77
35878;BME280;21982;49.804;24.072;2023-01-31T02:06:02;96028.28;;;0.61;73.04
35878;BME280;21982;49.804;24.072;2023-01-31T02:08:32;96129.00;;;1.29;73.09
35878;BME280;21982;49.804;24.072;2023-01-31T02:11:23;96136.31;;;1.42;72.85
35878;BME280;21982;49.804;24.072;2023-01-31T02:13:50;96113.94;;;1.15;73.38
35878;BME280;21982;49.804;24.072;2023-01-31T02:16:17;96177.78;;;1.53;73.11
35878;BME280;21982;49.804;24.072;2023-01-31T02:18:43;96178.13;;;1.58;73.19
35878;BME280;21982;49.804;24.072;2023-01-31T02:35:09;96175.69;;;1.64;73.66
35878;BME280;21982;49.804;24.072;2023-01-31T02:40:12;96185.78;;;1.59;73.27
35878;BME280;21982;49.804;24.072;2023-01-31T02:42:55;96186.44;;;1.61;73.02
35878;BME280;21982;49.804;24.072;2023-01-31T02:45:38;96155.25;;;1.36;73.62
35878;BME280;21982;49.804;24.072;2023-01-31T02:51:01;96206.22;;;1.72;73.11
35878;BME280;21982;49.804;24.072;2023-01-31T02:53:35;96162.44;;;1.50;73.36
35878;BME280;21982;49.804;24.072;2023-01-31T02:56:23;96211.91;;;1.67;73.15
35878;BME280;21982;49.804;24.072;2023-01-31T02:58:58;96203.91;;;1.69;73.81
35878;BME280;21982;49.804;24.072;2023-01-31T03:01:32;96196.19;;;1.51;73.86
35878;BME280;21982;49.804;24.072;2023-01-31T03:04:03;96203.22;;;1.59;73.96
35878;BME280;21982;49.804;24.072;2023-01-31T03:09:03;96160.31;;;1.37;73.52
35878;BME280;21982;49.804;24.072;2023-01-31T03:11:49;96216.31;;;1.67;74.12
35878;BME280;21982;49.804;24.072;2023-01-31T03:14:27;96090.91;;;0.94;74.01
35878;BME280;21982;49.804;24.072;2023-01-31T03:17:37;96179.22;;;1.47;73.87
35878;BME280;21982;49.804;24.072;2023-01-31T03:20:36;96203.91;;;1.69;74.22
35878;BME280;21982;49.804;24.072;2023-01-31T03:23:10;95998.19;;;0.25;74.20
35878;BME280;21982;49.804;24.072;2023-01-31T03:25:38;96222.50;;;1.74;74.44
35878;BME280;21982;49.804;24.072;2023-01-31T03:28:07;96159.44;;;1.20;74.25
35878;BME280;21982;49.804;24.072;2023-01-31T03:30:40;96227.44;;;1.85;74.46
35878;BME280;21982;49.804;24.072;2023-01-31T03:33:15;96226.59;;;1.85;74.18
35878;BME280;21982;49.804;24.072;2023-01-31T03:35:45;96141.34;;;1.19;74.69
35878;BME280;21982;49.804;24.072;2023-01-31T03:38:18;96230.34;;;1.82;73.98
35878;BME280;21982;49.804;24.072;2023-01-31T03:41:13;96247.97;;;1.80;73.90
35878;BME280;21982;49.804;24.072;2023-01-31T03:43:54;96202.19;;;1.36;74.22
35878;BME280;21982;49.804;24.072;2023-01-31T03:46:42;96100.50;;;0.85;73.99
35878;BME280;21982;49.804;24.072;2023-01-31T03:49:12;96250.06;;;1.77;74.67
35878;BME280;21982;49.804;24.072;2023-01-31T03:51:43;96182.97;;;1.37;74.94
35878;BME280;21982;49.804;24.072;2023-01-31T03:54:16;95995.22;;;-0.14;74.41
35878;BME280;21982;49.804;24.072;2023-01-31T03:56:46;96018.19;;;0.24;74.24
35878;BME280;21982;49.804;24.072;2023-01-31T03:59:19;96175.78;;;1.30;74.82
35878;BME280;21982;49.804;24.072;2023-01-31T04:01:48;96265.56;;;1.78;74.90
35878;BME280;21982;49.804;24.072;2023-01-31T04:04:30;96256.22;;;1.59;75.02
35878;BME280;21982;49.804;24.072;2023-01-31T04:06:58;96225.50;;;1.37;75.16
35878;BME280;21982;49.804;24.072;2023-01-31T04:09:24;96216.56;;;1.48;75.25
35878;BME280;21982;49.804;24.072;2023-01-31T04:11:51;96235.16;;;1.53;74.74
35878;BME280;21982;49.804;24.072;2023-01-31T04:14:17;96275.38;;;1.84;75.20
35878;BME280;21982;49.804;24.072;2023-01-31T04:16:43;96084.47;;;0.64;75.34
35878;BME280;21982;49.804;24.072;2023-01-31T04:19:08;96302.63;;;1.82;75.65
35878;BME280;21982;49.804;24.072;2023-01-31T04:21:34;96258.41;;;1.72;75.64
35878;BME280;21982;49.804;24.072;2023-01-31T04:23:59;96296.13;;;1.94;75.14
35878;BME280;21982;49.804;24.072;2023-01-31T04:26:25;96251.19;;;1.66;75.52
35878;BME280;21982;49.804;24.072;2023-01-31T04:28:50;96296.97;;;1.94;75.07
35878;BME280;21982;49.804;24.072;2023-01-31T04:31:16;96300.06;;;1.98;75.12
35878;BME280;21982;49.804;24.072;2023-01-31T04:33:41;95996.78;;;0.05;74.87
35878;BME280;21982;49.804;24.072;2023-01-31T04:36:07;96308.41;;;2.01;75.56
35878;BME280;21982;49.804;24.072;2023-01-31T04:38:32;96303.03;;;2.03;75.59
35878;BME280;21982;49.804;24.072;2023-01-31T04:40:58;96309.72;;;2.06;75.09
35878;BME280;21982;49.804;24.072;2023-01-31T04:43:23;96218.50;;;1.46;75.72
35878;BME280;21982;49.804;24.072;2023-01-31T04:45:49;96103.22;;;0.76;75.79
35878;BME280;21982;49.804;24.072;2023-01-31T04:48:14;96329.44;;;2.08;75.21
35878;BME280;21982;49.804;24.072;2023-01-31T04:50:40;96303.50;;;1.98;75.87
35878;BME280;21982;49.804;24.072;2023-01-31T04:53:05;96335.19;;;2.12;75.39
35878;BME280;21982;49.804;24.072;2023-01-31T04:55:33;96230.72;;;1.45;75.31
35878;BME280;21982;49.804;24.072;2023-01-31T04:57:58;96336.66;;;2.14;75.47
35878;BME280;21982;49.804;24.072;2023-01-31T05:00:23;96232.22;;;1.48;75.56
35878;BME280;21982;49.804;24.072;2023-01-31T05:02:49;96311.34;;;1.98;75.09
35878;BME280;21982;49.804;24.072;2023-01-31T05:05:14;96299.22;;;1.89;75.53
35878;BME280;21982;49.804;24.072;2023-01-31T05:07:40;96346.31;;;2.22;76.01
35878;BME280;21982;49.804;24.072;2023-01-31T05:10:07;95823.59;;;-1.00;75.29
35878;BME280;21982;49.804;24.072;2023-01-31T05:12:33;96348.94;;;2.30;76.06
35878;BME280;21982;49.804;24.072;2023-01-31T05:14:58;96217.38;;;1.48;75.27
35878;BME280;21982;49.804;24.072;2023-01-31T05:17:23;96060.31;;;0.54;75.80
35878;BME280;21982;49.804;24.072;2023-01-31T05:19:50;96349.63;;;2.40;75.88
35878;BME280;21982;49.804;24.072;2023-01-31T05:22:16;96354.34;;;2.45;75.08
35878;BME280;21982;49.804;24.072;2023-01-31T05:24:42;96251.56;;;1.79;75.24
35878;BME280;21982;49.804;24.072;2023-01-31T05:27:08;96197.81;;;1.44;75.66
35878;BME280;21982;49.804;24.072;2023-01-31T05:29:34;96230.63;;;1.55;75.23
35878;BME280;21982;49.804;24.072;2023-01-31T05:32:00;96371.50;;;2.47;75.30
35878;BME280;21982;49.804;24.072;2023-01-31T05:34:27;96280.03;;;2.07;75.81
35878;BME280;21982;49.804;24.072;2023-01-31T05:36:57;96361.38;;;2.52;75.13
35878;BME280;21982;49.804;24.072;2023-01-31T05:39:23;96364.00;;;2.52;75.56
35878;BME280;21982;49.804;24.072;2023-01-31T05:41:48;96246.22;;;1.47;75.26
35878;BME280;21982;49.804;24.072;2023-01-31T05:44:13;96280.81;;;1.99;75.13
35878;BME280;21982;49.804;24.072;2023-01-31T05:46:41;96329.34;;;2.26;75.45
35878;BME280;21982;49.804;24.072;2023-01-31T05:49:06;96297.16;;;2.01;75.15
35878;BME280;21982;49.804;24.072;2023-01-31T05:51:32;96322.59;;;1.99;75.35
35878;BME280;21982;49.804;24.072;2023-01-31T05:53:57;96388.53;;;2.59;75.81
35878;BME280;21982;49.804;24.072;2023-01-31T05:56:23;96369.63;;;2.15;75.54
35878;BME280;21982;49.804;24.072;2023-01-31T05:58:48;96234.47;;;1.43;75.53
35878;BME280;21982;49.804;24.072;2023-01-31T06:01:16;96446.16;;;2.58;75.47
35878;BME280;21982;49.804;24.072;2023-01-31T06:03:42;96391.28;;;2.58;75.84
35878;BME280;21982;49.804;24.072;2023-01-31T06:06:07;96226.69;;;1.51;75.16
35878;BME280;21982;49.804;24.072;2023-01-31T06:08:32;96241.03;;;1.55;75.50
35878;BME280;21982;49.804;24.072;2023-01-31T06:11:01;96391.91;;;2.44;75.71
35878;BME280;21982;49.804;24.072;2023-01-31T06:13:27;96402.09;;;2.63;75.18
35878;BME280;21982;49.804;24.072;2023-01-31T06:15:52;96338.75;;;2.11;75.26
35878;BME280;21982;49.804;24.072;2023-01-31T06:18:19;96408.44;;;2.60;75.69
35878;BME280;21982;49.804;24.072;2023-01-31T06:20:44;96418.91;;;2.60;75.57
35878;BME280;21982;49.804;24.072;2023-01-31T06:23:09;96397.84;;;2.62;75.11
35878;BME280;21982;49.804;24.072;2023-01-31T06:25:35;96163.50;;;1.23;75.62
35878;BME280;21982;49.804;24.072;2023-01-31T06:28:01;96391.81;;;2.69;74.87
35878;BME280;21982;49.804;24.072;2023-01-31T06:30:26;96398.50;;;2.72;75.61
35878;BME280;21982;49.804;24.072;2023-01-31T06:32:52;96325.41;;;2.22;75.68
35878;BME280;21982;49.804;24.072;2023-01-31T06:35:17;96205.97;;;1.07;75.04
35878;BME280;21982;49.804;24.072;2023-01-31T06:37:44;96358.59;;;2.38;75.54
35878;BME280;21982;49.804;24.072;2023-01-31T06:40:10;96302.38;;;2.01;75.12
35878;BME280;21982;49.804;24.072;2023-01-31T06:42:36;96301.88;;;1.97;74.75
35878;BME280;21982;49.804;24.072;2023-01-31T06:45:01;96358.91;;;2.34;75.29
35878;BME280;21982;49.804;24.072;2023-01-31T06:47:28;96277.03;;;1.85;75.47
35878;BME280;21982;49.804;24.072;2023-01-31T06:49:54;96410.44;;;2.66;75.38
35878;BME280;21982;49.804;24.072;2023-01-31T06:52:19;96417.25;;;2.51;75.39
35878;BME280;21982;49.804;24.072;2023-01-31T06:54:44;96228.94;;;1.46;75.17
35878;BME280;21982;49.804;24.072;2023-01-31T06:57:10;96428.72;;;2.66;75.46
35878;BME280;21982;49.804;24.072;2023-01-31T06:59:35;96281.50;;;1.59;75.19
35878;BME280;21982;49.804;24.072;2023-01-31T07:02:00;96450.94;;;2.62;75.04
35878;BME280;21982;49.804;24.072;2023-01-31T07:04:26;96258.34;;;1.56;74.74
35878;BME280;21982;49.804;24.072;2023-01-31T07:06:51;96415.81;;;2.65;75.27
35878;BME280;21982;49.804;24.072;2023-01-31T07:09:17;96241.31;;;1.44;75.29
35878;BME280;21982;49.804;24.072;2023-01-31T07:11:42;96409.06;;;2.46;74.85
35878;BME280;21982;49.804;24.072;2023-01-31T07:14:08;96445.34;;;2.57;75.78
35878;BME280;21982;49.804;24.072;2023-01-31T07:16:33;96309.94;;;1.70;75.37
35878;BME280;21982;49.804;24.072;2023-01-31T07:18:59;96449.94;;;2.63;75.89
35878;BME280;21982;49.804;24.072;2023-01-31T07:21:24;96329.06;;;1.87;75.55
35878;BME280;21982;49.804;24.072;2023-01-31T07:23:50;96407.09;;;2.40;75.45
35878;BME280;21982;49.804;24.072;2023-01-31T07:26:16;96437.00;;;2.54;75.68
35878;BME280;21982;49.804;24.072;2023-01-31T07:28:41;96335.47;;;1.92;75.18
35878;BME280;21982;49.804;24.072;2023-01-31T07:31:10;96392.31;;;2.15;75.78
35878;BME280;21982;49.804;24.072;2023-01-31T07:33:36;96321.19;;;1.71;75.77
35878;BME280;21982;49.804;24.072;2023-01-31T07:36:02;96483.44;;;2.68;75.20
35878;BME280;21982;49.804;24.072;2023-01-31T07:38:29;96483.63;;;2.66;76.01
35878;BME280;21982;49.804;24.072;2023-01-31T07:40:58;96404.44;;;2.24;75.71
35878;BME280;21982;49.804;24.072;2023-01-31T07:43:23;96491.47;;;2.83;76.13
35878;BME280;21982;49.804;24.072;2023-01-31T07:45:49;96506.50;;;2.81;75.55
35878;BME280;21982;49.804;24.072;2023-01-31T07:48:14;96476.41;;;2.60;75.17
35878;BME280;21982;49.804;24.072;2023-01-31T07:50:39;96513.06;;;2.77;75.27
35878;BME280;21982;49.804;24.072;2023-01-31T07:53:05;96489.47;;;2.60;75.35
35878;BME280;21982;49.804;24.072;2023-01-31T07:55:30;96434.28;;;2.21;75.78
35878;BME280;21982;49.804;24.072;2023-01-31T07:57:56;96497.66;;;2.65;75.51
35878;BME280;21982;49.804;24.072;2023-01-31T08:00:21;96477.03;;;2.54;76.06
35878;BME280;21982;49.804;24.072;2023-01-31T08:03:33;96529.09;;;2.90;75.86
35878;BME280;21982;49.804;24.072;2023-01-31T08:06:03;96538.09;;;2.95;75.54
35878;BME280;21982;49.804;24.072;2023-01-31T08:08:30;96408.44;;;2.02;75.58
35878;BME280;21982;49.804;24.072;2023-01-31T08:10:56;96533.34;;;2.91;75.60
35878;BME280;21982;49.804;24.072;2023-01-31T08:13:21;96551.69;;;2.99;75.44
35878;BME280;21982;49.804;24.072;2023-01-31T08:15:50;96556.28;;;3.05;75.99
35878;BME280;21982;49.804;24.072;2023-01-31T08:18:19;96550.56;;;3.10;75.99
35878;BME280;21982;49.804;24.072;2023-01-31T08:20:44;96551.41;;;3.10;75.83
35878;BME280;21982;49.804;24.072;2023-01-31T08:23:10;96556.63;;;3.10;75.72
35878;BME280;21982;49.804;24.072;2023-01-31T08:25:35;96452.81;;;2.44;75.69
35878;BME280;21982;49.804;24.072;2023-01-31T08:28:01;96441.53;;;2.35;75.66
35878;BME280;21982;49.804;24.072;2023-01-31T08:30:27;96344.56;;;1.88;75.34
35878;BME280;21982;49.804;24.072;2023-01-31T08:32:53;96565.78;;;3.22;75.35
35878;BME280;21982;49.804;24.072;2023-01-31T08:35:19;96065.31;;;0.13;75.04
35878;BME280;21982;49.804;24.072;2023-01-31T08:37:44;96595.25;;;3.32;75.50
35878;BME280;21982;49.804;24.072;2023-01-31T08:40:10;96449.94;;;2.63;75.32
35878;BME280;21982;49.804;24.072;2023-01-31T08:42:38;96469.72;;;2.66;75.12
35878;BME280;21982;49.804;24.072;2023-01-31T08:45:04;96588.84;;;3.27;75.39
35878;BME280;21982;49.804;24.072;2023-01-31T08:47:31;96582.81;;;3.26;75.58
35878;BME280;21982;49.804;24.072;2023-01-31T08:49:56;96527.09;;;2.76;75.38
35878;BME280;21982;49.804;24.072;2023-01-31T08:52:22;96549.09;;;3.15;75.50
35878;BME280;21982;49.804;24.072;2023-01-31T08:54:47;96341.25;;;1.78;75.33
35878;BME280;21982;49.804;24.072;2023-01-31T08:57:12;96476.09;;;2.63;74.88
35878;BME280;21982;49.804;24.072;2023-01-31T08:59:38;96507.53;;;2.96;75.18
35878;BME280;21982;49.804;24.072;2023-01-31T09:02:03;96428.91;;;2.23;74.93
35878;BME280;21982;49.804;24.072;2023-01-31T09:04:28;96588.06;;;3.51;74.66
35878;BME280;21982;49.804;24.072;2023-01-31T09:06:54;96521.72;;;2.85;74.45
35878;BME280;21982;49.804;24.072;2023-01-31T09:09:20;96554.97;;;3.17;74.83
35878;BME280;21982;49.804;24.072;2023-01-31T09:11:45;96586.91;;;3.29;74.11
35878;BME280;21982;49.804;24.072;2023-01-31T09:14:10;96605.06;;;3.47;74.63
35878;BME280;21982;49.804;24.072;2023-01-31T09:16:36;96617.19;;;3.48;74.20
35878;BME280;21982;49.804;24.072;2023-01-31T09:19:02;96578.56;;;3.33;74.57
35878;BME280;21982;49.804;24.072;2023-01-31T09:21:27;96551.41;;;3.26;74.38
35878;BME280;21982;49.804;24.072;2023-01-31T09:23:55;96548.00;;;3.34;74.08
35878;BME280;21982;49.804;24.072;2023-01-31T09:26:21;96567.16;;;3.43;73.67
35878;BME280;21982;49.804;24.072;2023-01-31T09:28:47;96406.63;;;2.53;73.75
35878;BME280;21982;49.804;24.072;2023-01-31T09:31:16;96614.47;;;3.90;73.15
35878;BME280;21982;49.804;24.072;2023-01-31T09:33:43;96621.50;;;3.89;73.52
35878;BME280;21982;49.804;24.072;2023-01-31T09:36:10;96622.81;;;3.93;73.10
35878;BME280;21982;49.804;24.072;2023-01-31T09:38:37;96490.56;;;3.08;73.02
35878;BME280;21982;49.804;24.072;2023-01-31T09:43:44;96666.03;;;3.97;73.00
35878;BME280;21982;49.804;24.072;2023-01-31T09:46:17;96475.84;;;2.99;72.57
35878;BME280;21982;49.804;24.072;2023-01-31T09:48:48;96637.88;;;3.99;72.54
35878;BME280;21982;49.804;24.072;2023-01-31T09:51:18;96451.16;;;2.93;72.71
35878;BME280;21982;49.804;24.072;2023-01-31T09:53:45;96624.94;;;3.98;72.81
35878;BME280;21982;49.804;24.072;2023-01-31T09:56:31;96475.50;;;2.94;72.61
35878;BME280;21982;49.804;24.072;2023-01-31T09:59:13;96518.69;;;3.22;72.52
35878;BME280;21982;49.804;24.072;2023-01-31T10:01:56;96632.13;;;3.88;72.90
35878;BME280;21982;49.804;24.072;2023-01-31T10:07:05;96487.41;;;2.88;72.51
35878;BME280;21982;49.804;24.072;2023-01-31T10:12:24;96631.63;;;3.84;72.70
35878;BME280;21982;49.804;24.072;2023-01-31T10:15:28;96462.56;;;2.84;72.18
35878;BME280;21982;49.804;24.072;2023-01-31T10:17:52;96628.38;;;3.90;72.45
35878;BME280;21982;49.804;24.072;2023-01-31T10:23:27;96635.09;;;4.01;71.95
35878;BME280;21982;49.804;24.072;2023-01-31T10:26:02;96144.38;;;1.06;71.63
35878;BME280;21982;49.804;24.072;2023-01-31T10:28:38;96627.72;;;4.29;71.52
35878;BME280;21982;49.804;24.072;2023-01-31T10:34:10;96603.78;;;4.40;70.91
35878;BME280;21982;49.804;24.072;2023-01-31T10:37:15;96633.41;;;4.57;70.34
35878;BME280;21982;49.804;24.072;2023-01-31T10:39:49;96449.69;;;3.48;70.61
35878;BME280;21982;49.804;24.072;2023-01-31T10:47:36;96592.81;;;4.36;70.00
35878;BME280;21982;49.804;24.072;2023-01-31T10:50:17;96433.69;;;3.26;69.40
35878;BME280;21982;49.804;24.072;2023-01-31T10:52:52;96626.69;;;4.54;69.76
35878;BME280;21982;49.804;24.072;2023-01-31T10:55:39;96620.16;;;4.50;70.07
35878;BME280;21982;49.804;24.072;2023-01-31T10:58:13;96651.91;;;4.55;69.49
35878;BME280;21982;49.804;24.072;2023-01-31T11:00:39;96466.03;;;3.50;69.88
35878;BME280;21982;49.804;24.072;2023-01-31T11:03:04;96416.50;;;2.99;69.07
35878;BME280;21982;49.804;24.072;2023-01-31T11:05:30;96573.00;;;4.26;69.20
35878;BME280;21982;49.804;24.072;2023-01-31T11:07:59;96630.75;;;4.81;68.98
35878;BME280;21982;49.804;24.072;2023-01-31T11:10:31;96608.47;;;4.69;68.60
35878;BME280;21982;49.804;24.072;2023-01-31T15:11:13;96750.44;;;2.73;70.20
35878;BME280;21982;49.804;24.072;2023-01-31T15:14:40;96759.03;;;2.65;70.72
35878;BME280;21982;49.804;24.072;2023-01-31T15:17:21;96627.41;;;1.79;70.45
35878;BME280;21982;49.804;24.072;2023-01-31T15:20:12;96760.63;;;2.58;70.68
35878;BME280;21982;49.804;24.072;2023-01-31T15:22:41;96734.72;;;2.47;70.73
35878;BME280;21982;49.804;24.072;2023-01-31T15:25:20;96609.38;;;1.68;70.33
35878;BME280;21982;49.804;24.072;2023-01-31T15:27:48;96755.38;;;2.58;71.37
35878;BME280;21982;49.804;24.072;2023-01-31T15:30:19;96773.69;;;2.58;70.52
35878;BME280;21982;49.804;24.072;2023-01-31T15:33:00;96681.50;;;2.05;71.03
35878;BME280;21982;49.804;24.072;2023-01-31T15:35:29;96515.59;;;0.78;70.57
35878;BME280;21982;49.804;24.072;2023-01-31T15:38:25;96764.19;;;2.57;70.31
35878;BME280;21982;49.804;24.072;2023-01-31T15:41:24;96768.75;;;2.55;70.89
35878;BME280;21982;49.804;24.072;2023-01-31T15:43:53;96763.38;;;2.57;70.92
35878;BME280;21982;49.804;24.072;2023-01-31T15:48:47;96770.47;;;2.64;70.72
35878;BME280;21982;49.804;24.072;2023-01-31T15:51:18;96784.72;;;2.70;70.68
35878;BME280;21982;49.804;24.072;2023-01-31T15:53:45;96658.97;;;2.04;70.68
35878;BME280;21982;49.804;24.072;2023-01-31T15:56:21;96778.16;;;2.66;70.52
35878;BME280;21982;49.804;24.072;2023-01-31T15:58:57;96768.81;;;2.63;70.80
35878;BME280;21982;49.804;24.072;2023-01-31T16:01:23;96718.31;;;2.19;70.76
35878;BME280;21982;49.804;24.072;2023-01-31T16:03:54;96767.41;;;2.51;70.29
35878;BME280;21982;49.804;24.072;2023-01-31T16:06:24;96739.81;;;2.31;70.04
35878;BME280;21982;49.804;24.072;2023-01-31T16:08:55;96588.50;;;1.32;70.03
35878;BME280;21982;49.804;24.072;2023-01-31T16:11:21;96707.31;;;2.08;70.08
35878;BME280;21982;49.804;24.072;2023-01-31T16:13:48;96780.47;;;2.51;70.74
35878;BME280;21982;49.804;24.072;2023-01-31T16:16:14;96681.47;;;1.87;69.83
35878;BME280;21982;49.804;24.072;2023-01-31T16:18:43;96785.34;;;2.46;70.41
35878;BME280;21982;49.804;24.072;2023-01-31T16:21:37;96792.34;;;2.46;69.56
35878;BME280;21982;49.804;24.072;2023-01-31T16:24:14;96763.78;;;2.26;70.13
35878;BME280;21982;49.804;24.072;2023-01-31T16:27:00;96798.41;;;2.46;70.38
35878;BME280;21982;49.804;24.072;2023-01-31T16:29:42;96627.25;;;1.45;70.48
35878;BME280;21982;49.804;24.072;2023-01-31T16:32:30;96783.84;;;2.44;70.66
35878;BME280;21982;49.804;24.072;2023-01-31T16:35:06;96738.66;;;2.08;70.35
35878;BME280;21982;49.804;24.072;2023-01-31T16:37:37;96798.06;;;2.41;70.25
35878;BME280;21982;49.804;24.072;2023-01-31T16:42:42;96622.31;;;1.24;70.31
35878;BME280;21982;49.804;24.072;2023-01-31T16:45:29;96794.69;;;2.31;69.94
35878;BME280;21982;49.804;24.072;2023-01-31T16:48:11;96801.84;;;2.29;70.36
35878;BME280;21982;49.804;24.072;2023-01-31T16:50:43;96586.97;;;0.94;71.06
35878;BME280;21982;49.804;24.072;2023-01-31T16:53:23;96810.22;;;2.32;70.66
35878;BME280;21982;49.804;24.072;2023-01-31T16:58:44;96802.53;;;2.31;71.00
35878;BME280;21982;49.804;24.072;2023-01-31T17:01:12;96809.53;;;2.30;71.24
35878;BME280;21982;49.804;24.072;2023-01-31T17:03:38;96794.97;;;2.28;70.52
35878;BME280;21982;49.804;24.072;2023-01-31T17:06:04;96784.81;;;2.07;70.77
35878;BME280;21982;49.804;24.072;2023-01-31T17:08:31;96799.53;;;2.26;70.72
35878;BME280;21982;49.804;24.072;2023-01-31T17:11:00;96771.78;;;2.07;71.26
35878;BME280;21982;49.804;24.072;2023-01-31T17:13:25;96799.00;;;2.22;70.75
35878;BME280;21982;49.804;24.072;2023-01-31T17:15:51;96238.31;;;-1.36;70.78
35878;BME280;21982;49.804;24.072;2023-01-31T17:18:16;96726.97;;;1.66;70.66
35878;BME280;21982;49.804;24.072;2023-01-31T17:20:47;96550.53;;;0.30;70.79
35878;BME280;21982;49.804;24.072;2023-01-31T17:23:13;96807.06;;;2.29;70.77
35878;BME280;21982;49.804;24.072;2023-01-31T17:25:39;96639.59;;;1.25;70.97
35878;BME280;21982;49.804;24.072;2023-01-31T17:28:07;96602.75;;;0.93;71.01
35878;BME280;21982;49.804;24.072;2023-01-31T17:30:33;96751.00;;;1.88;70.67
35878;BME280;21982;49.804;24.072;2023-01-31T17:32:59;96813.13;;;2.29;70.76
35878;BME280;21982;49.804;24.072;2023-01-31T17:35:40;96707.50;;;1.61;70.79
35878;BME280;21982;49.804;24.072;2023-01-31T17:38:06;96813.72;;;2.23;71.01
35878;BME280;21982;49.804;24.072;2023-01-31T17:40:32;96814.91;;;2.29;70.75
35878;BME280;21982;49.804;24.072;2023-01-31T17:43:03;96746.88;;;1.85;70.85
35878;BME280;21982;49.804;24.072;2023-01-31T17:45:29;96616.38;;;1.05;70.47
35878;BME280;21982;49.804;24.072;2023-01-31T17:47:54;96811.47;;;2.28;71.00
35878;BME280;21982;49.804;24.072;2023-01-31T17:50:22;96665.56;;;1.45;70.15
35878;BME280;21982;49.804;24.072;2023-01-31T17:52:48;96655.75;;;1.39;70.64
35878;BME280;21982;49.804;24.072;2023-01-31T17:55:15;96810.28;;;2.23;70.58
35878;BME280;21982;49.804;24.072;2023-01-31T17:57:44;96799.72;;;2.15;70.72
35878;BME280;21982;49.804;24.072;2023-01-31T18:00:16;96628.91;;;1.01;70.51
35878;BME280;21982;49.804;24.072;2023-01-31T18:02:42;96746.13;;;1.75;70.53